Time;durP1;ratioP1;P1;durP2;ratioP2;P2;SDS_P1;SDS_P2;PMS_P1;PMS_P2;Temp;Humidity;BMP_temperature;BMP_pressure;BME280_temperature;BME280_humidity;BME280_pressure;Samples;Min_cycle;Max_cycle;Signal;HPM_P1;HPM_P2
2023/03/28 00:02:07;;;;;;;;;3.00;3.00;;;;;6.32;84.73;102259.84;5112939;27;47450;-83
2023/03/28 00:04:37;;;;;;;;;5.33;4.00;;;;;6.28;84.99;102263.84;5115824;27;46344;-82
2023/03/28 00:07:05;;;;;;;;;4.67;3.67;;;;;6.27;85.47;102263.00;5097304;27;44830;-80
2023/03/28 00:09:37;;;;;;;;;6.00;6.00;;;;;6.26;85.59;102264.00;5105081;27;45247;-82
2023/03/28 00:12:04;;;;;;;;;3.67;3.67;;;;;6.10;85.42;102240.03;5101251;27;44730;-83
2023/03/28 00:14:30;;;;;;;;;5.33;5.33;;;;;6.16;85.27;102255.78;5103271;27;45473;-79
2023/03/28 00:16:56;;;;;;;;;7.00;4.00;;;;;6.20;85.36;102261.84;5081758;27;45414;-79
2023/03/28 00:19:21;;;;;;;;;5.67;4.67;;;;;6.19;85.91;102258.22;5105304;27;45593;-78
2023/03/28 00:21:50;;;;;;;;;3.00;3.00;;;;;6.19;85.49;102263.69;5095841;27;45194;-80
2023/03/28 00:24:20;;;;;;;;;9.67;5.33;;;;;6.14;85.23;102252.38;5077930;27;46257;-79
2023/03/28 00:26:48;;;;;;;;;4.33;4.33;;;;;6.16;85.68;102253.06;5089994;27;44978;-80
2023/03/28 00:29:15;;;;;;;;;7.00;5.00;;;;;6.21;85.77;102258.09;5095649;27;44921;-79
2023/03/28 00:31:41;;;;;;;;;6.67;4.67;;;;;6.04;85.49;102228.84;5074913;27;45585;-80
2023/03/28 00:34:07;;;;;;;;;5.00;4.00;;;;;6.21;84.49;102252.63;5100801;27;45857;-81
2023/03/28 00:36:33;;;;;;;;;7.33;5.00;;;;;6.23;84.47;102256.09;5095502;27;45464;-81
2023/03/28 00:39:00;;;;;;;;;6.00;4.67;;;;;6.22;84.16;102257.09;5105658;27;45820;-81
2023/03/28 00:41:31;;;;;;;;;4.33;3.67;;;;;6.24;84.45;102252.34;5091404;27;45789;-82
2023/03/28 00:43:58;;;;;;;;;4.33;4.33;;;;;6.25;84.22;102250.50;5104007;27;47082;-82
2023/03/28 00:46:40;;;;;;;;;3.00;3.00;;;;;6.29;83.88;102260.13;5103953;27;45819;-83
2023/03/28 00:49:12;;;;;;;;;7.00;6.00;;;;;6.27;83.27;102256.66;5085320;27;45821;-81
2023/03/28 00:51:47;;;;;;;;;5.00;2.00;;;;;6.32;84.08;102268.84;5088324;27;45656;-80
2023/03/28 00:54:17;;;;;;;;;4.33;3.33;;;;;6.30;83.41;102261.81;5071302;27;47311;-80
2023/03/28 00:56:47;;;;;;;;;5.00;4.00;;;;;6.40;83.60;102257.22;5091212;27;45240;-82
2023/03/28 00:59:19;;;;;;;;;7.67;5.00;;;;;6.22;83.48;102232.56;5098250;27;45824;-82
2023/03/28 01:01:45;;;;;;;;;3.00;3.00;;;;;6.41;83.56;102258.97;5077020;27;46056;-81
2023/03/28 01:04:19;;;;;;;;;5.00;5.00;;;;;6.46;83.77;102262.09;5069239;27;45412;-81
2023/03/28 01:06:48;;;;;;;;;6.67;3.33;;;;;6.52;84.05;102266.13;5095222;27;45133;-83
2023/03/28 01:09:16;;;;;;;;;5.00;4.00;;;;;6.57;83.87;102257.50;5086278;27;45899;-78
2023/03/28 01:11:44;;;;;;;;;5.67;4.67;;;;;6.67;84.02;102261.09;5090888;27;45991;-77
2023/03/28 01:14:14;;;;;;;;;5.00;5.00;;;;;6.71;83.68;102262.53;5072817;27;47047;-78
2023/03/28 01:16:40;;;;;;;;;3.00;3.00;;;;;6.77;84.53;102256.47;5090822;27;45494;-78
2023/03/28 01:19:32;;;;;;;;;6.33;5.00;;;;;6.54;84.29;102209.59;5088172;27;45509;-78
2023/03/28 01:22:16;;;;;;;;;5.00;5.00;;;;;6.82;84.17;102256.03;5079899;27;45921;-77
2023/03/28 01:25:00;;;;;;;;;7.67;5.67;;;;;6.82;84.36;102245.97;5075236;27;46437;-76
2023/03/28 01:27:38;;;;;;;;;5.00;4.00;;;;;6.83;84.52;102241.41;5074063;27;45652;-77
2023/03/28 01:30:25;;;;;;;;;7.67;5.67;;;;;6.81;85.38;102236.09;5084227;27;45666;-76
2023/03/28 01:33:20;;;;;;;;;8.67;6.00;;;;;6.76;85.88;102226.63;5061839;28;45767;-77
2023/03/28 01:36:16;;;;;;;;;9.00;6.67;;;;;6.74;85.32;102229.50;5079517;27;45952;-77
2023/03/28 01:39:11;;;;;;;;;6.67;5.67;;;;;6.66;85.91;102219.34;5081205;27;45957;-76
2023/03/28 01:41:45;;;;;;;;;4.33;4.33;;;;;6.61;86.10;102215.34;5092979;27;45847;-79
2023/03/28 01:44:39;;;;;;;;;5.67;3.33;;;;;6.56;86.18;102207.59;5072593;27;46913;-79
2023/03/28 01:47:30;;;;;;;;;5.33;4.00;;;;;6.53;85.53;102195.13;5059604;28;47364;-79
2023/03/28 01:50:08;;;;;;;;;4.00;3.00;;;;;6.51;84.54;102191.69;5084962;27;45628;-78
2023/03/28 01:52:45;;;;;;;;;6.00;4.67;;;;;6.47;83.91;102187.53;5095914;27;45760;-80
2023/03/28 01:55:15;;;;;;;;;5.00;5.00;;;;;6.43;85.03;102202.44;5068894;27;46221;-79
2023/03/28 01:57:57;;;;;;;;;4.00;2.00;;;;;6.36;85.17;102204.03;5083670;27;47055;-79
2023/03/28 02:00:42;;;;;;;;;6.67;6.67;;;;;6.30;85.75;102197.31;5091874;27;46216;-80
2023/03/28 02:03:23;;;;;;;;;6.00;5.33;;;;;6.24;86.21;102195.13;5092780;27;45811;-80
2023/03/28 02:05:52;;;;;;;;;5.00;5.00;;;;;6.11;86.41;102187.28;5087024;27;45480;-80
2023/03/28 02:08:22;;;;;;;;;9.00;5.00;;;;;6.00;86.75;102174.69;5102764;27;45509;-84
2023/03/28 02:10:52;;;;;;;;;3.67;3.00;;;;;6.01;87.29;102172.81;5097175;27;45315;-84
2023/03/28 02:13:33;;;;;;;;;7.67;4.67;;;;;6.06;87.81;102185.97;5103898;27;45405;-84
2023/03/28 02:16:21;;;;;;;;;4.00;4.00;;;;;6.08;87.06;102192.13;5100826;27;45660;-83
2023/03/28 02:18:58;;;;;;;;;5.00;5.00;;;;;6.08;86.67;102183.97;5077762;27;45625;-82
2023/03/28 02:21:35;;;;;;;;;2.00;2.00;;;;;5.89;86.39;102143.97;5099393;27;45673;-81
2023/03/28 02:24:02;;;;;;;;;4.00;4.00;;;;;6.01;86.47;102162.75;5088880;27;45479;-81
2023/03/28 02:26:28;;;;;;;;;4.33;4.33;;;;;6.02;86.15;102152.75;5093171;27;45932;-82
2023/03/28 02:28:58;;;;;;;;;3.67;3.67;;;;;6.26;86.42;102184.13;5103063;27;45807;-82
2023/03/28 02:31:24;;;;;;;;;7.00;3.67;;;;;6.18;86.72;102153.03;5092334;27;45827;-82
2023/03/28 02:33:51;;;;;;;;;6.00;5.00;;;;;6.30;86.05;102175.53;5077552;27;45358;-80
2023/03/28 02:36:22;;;;;;;;;7.00;5.33;;;;;6.34;86.96;102163.28;5102412;27;45617;-82
2023/03/28 02:39:20;;;;;;;;;5.00;5.00;;;;;6.05;86.42;102100.72;5073607;27;46368;-80
2023/03/28 02:42:30;;;;;;;;;4.00;4.00;;;;;6.44;85.45;102157.00;5089849;27;45732;-81
2023/03/28 02:45:25;;;;;;;;;4.00;4.00;;;;;6.48;85.14;102137.47;5045633;27;45923;-81
2023/03/28 02:48:33;;;;;;;;;4.67;4.67;;;;;6.58;84.91;102142.03;5075547;27;45936;-80
2023/03/28 02:51:45;;;;;;;;;1.00;1.00;;;;;6.69;85.41;102139.09;5085864;27;45477;-81
2023/03/28 02:54:41;;;;;;;;;6.00;5.00;;;;;6.75;85.50;102127.63;5046673;27;45505;-81
2023/03/28 02:58:26;;;;;;;;;;;;;;;;;;;;;
2023/03/28 03:05:26;;;;;;;;;2.33;2.00;;;;;6.92;83.12;102114.22;4933843;28;47188;-86
2023/03/28 03:08:52;;;;;;;;;3.67;3.67;;;;;6.76;82.08;102071.22;4925120;28;45020;-82
2023/03/28 03:11:27;;;;;;;;;3.00;3.00;;;;;6.76;82.98;102057.59;4902197;28;45396;-82
2023/03/28 03:17:24;;;;;;;;;3.00;3.00;;;;;7.13;81.41;102111.22;4872769;29;45528;-82
2023/03/28 03:19:57;;;;;;;;;3.00;3.00;;;;;7.15;81.56;102099.13;5069316;27;45614;-83
2023/03/28 03:22:44;;;;;;;;;2.00;2.00;;;;;7.17;81.14;102107.16;5090464;27;45767;-83
2023/03/28 03:25:36;;;;;;;;;5.00;3.00;;;;;6.96;81.20;102072.84;5063909;27;45426;-83
2023/03/28 03:28:02;;;;;;;;;3.00;1.67;;;;;7.12;80.88;102093.97;5089910;27;45852;-82
2023/03/28 03:30:32;;;;;;;;;2.33;2.00;;;;;6.83;80.17;102035.03;5097425;27;45317;-82
2023/03/28 03:32:59;;;;;;;;;2.33;2.33;;;;;6.93;80.79;102055.91;5064002;27;45768;-82
2023/03/28 03:35:27;;;;;;;;;3.00;3.00;;;;;6.94;80.78;102068.53;5099096;27;45884;-82
2023/03/28 03:37:56;;;;;;;;;7.00;3.00;;;;;7.00;80.96;102089.75;5072521;27;47320;-81
2023/03/28 03:40:23;;;;;;;;;8.33;7.00;;;;;6.65;82.37;102037.69;5080309;27;45436;-82
2023/03/28 03:43:06;;;;;;;;;3.33;3.33;;;;;6.88;81.70;102087.22;5069032;27;45733;-84
2023/03/28 03:45:31;;;;;;;;;2.33;2.33;;;;;6.75;82.27;102067.66;5088685;27;45596;-82
2023/03/28 03:48:41;;;;;;;;;4.00;3.00;;;;;6.80;82.64;102084.41;5107582;27;46362;-82
2023/03/28 03:51:16;;;;;;;;;9.67;5.00;;;;;6.72;83.08;102087.88;5087171;27;45737;-83
2023/03/28 03:53:45;;;;;;;;;7.67;4.33;;;;;6.32;83.12;102039.13;5096088;27;45674;-82
2023/03/28 03:56:47;;;;;;;;;5.00;4.00;;;;;6.12;84.30;102009.25;5073867;27;45451;-81
2023/03/28 03:59:24;;;;;;;;;5.33;4.00;;;;;6.33;84.20;102049.00;5076985;27;47107;-82
2023/03/28 04:02:17;;;;;;;;;7.67;4.33;;;;;6.15;84.43;102018.97;5071806;27;45471;-83
2023/03/28 04:05:10;;;;;;;;;6.33;5.00;;;;;6.26;84.50;102037.03;5085405;27;45018;-85
2023/03/28 04:07:36;;;;;;;;;6.00;6.00;;;;;6.00;85.39;102007.69;5087526;27;46076;-84
2023/03/28 04:10:05;;;;;;;;;5.33;4.67;;;;;6.30;85.75;102043.88;5100854;27;45982;-83
2023/03/28 04:12:31;;;;;;;;;6.00;5.00;;;;;6.18;85.13;102032.28;5081076;27;45532;-83
2023/03/28 04:14:58;;;;;;;;;10.00;6.00;;;;;6.22;85.96;102030.13;5083068;27;45473;-81
2023/03/28 04:17:27;;;;;;;;;10.33;6.67;;;;;6.44;86.11;102073.38;5098238;27;45567;-82
2023/03/28 04:19:54;;;;;;;;;5.67;5.00;;;;;6.18;86.52;102016.81;5094627;27;47684;-82
2023/03/28 04:22:21;;;;;;;;;9.67;6.33;;;;;6.46;86.16;102046.81;5103242;27;45472;-82
2023/03/28 04:24:55;;;;;;;;;5.67;5.33;;;;;6.62;86.24;102058.97;5095606;27;45570;-82
2023/03/28 04:27:30;;;;;;;;;11.33;11.00;;;;;6.23;86.09;101980.06;5086379;27;46318;-82
2023/03/28 04:30:12;;;;;;;;;10.00;6.00;;;;;6.77;85.48;102059.31;5090840;27;46587;-82
2023/03/28 04:32:39;;;;;;;;;4.67;4.33;;;;;6.47;85.71;102015.84;5072009;28;45811;-82
2023/03/28 04:35:10;;;;;;;;;5.00;5.00;;;;;6.46;85.56;102005.94;5080047;27;45687;-84
2023/03/28 04:37:41;;;;;;;;;3.67;3.67;;;;;6.78;84.95;102061.91;5092475;27;45628;-81
2023/03/28 04:40:14;;;;;;;;;5.00;3.00;;;;;6.79;85.74;102055.41;5083243;27;45900;-83
2023/03/28 04:42:40;;;;;;;;;2.00;2.00;;;;;6.66;85.58;102038.53;5072159;27;45468;-81
2023/03/28 04:45:25;;;;;;;;;4.00;3.33;;;;;6.78;85.11;102058.28;5085620;27;45831;-82
2023/03/28 04:47:52;;;;;;;;;4.67;3.67;;;;;6.81;85.46;102053.41;5080805;27;45499;-84
2023/03/28 04:50:18;;;;;;;;;4.67;3.67;;;;;6.64;84.96;102029.66;5086008;27;48135;-81
2023/03/28 04:52:44;;;;;;;;;3.67;2.67;;;;;6.91;85.64;102069.69;5079835;27;45547;-81
2023/03/28 04:55:10;;;;;;;;;4.00;4.00;;;;;6.97;85.61;102062.78;5088269;27;45888;-81
2023/03/28 04:57:47;;;;;;;;;2.67;2.67;;;;;6.87;85.55;102025.53;5093538;27;46645;-82
2023/03/28 05:00:15;;;;;;;;;4.00;3.00;;;;;7.03;85.33;102041.19;5091991;27;46911;-81
2023/03/28 05:02:47;;;;;;;;;4.67;4.00;;;;;6.97;85.89;102019.16;5086773;27;45540;-83
2023/03/28 05:05:12;;;;;;;;;4.00;4.00;;;;;7.10;85.45;102026.97;5083280;27;45817;-82
2023/03/28 05:07:59;;;;;;;;;5.67;3.33;;;;;7.12;85.90;102033.97;5081814;27;45347;-83
2023/03/28 05:10:28;;;;;;;;;6.00;4.33;;;;;6.99;86.10;101998.03;5091201;27;45832;-80
2023/03/28 05:12:57;;;;;;;;;6.00;4.33;;;;;7.12;86.56;102014.03;5100986;27;45461;-84
2023/03/28 05:15:24;;;;;;;;;6.00;3.00;;;;;7.19;86.57;102026.88;5090810;27;45509;-82
2023/03/28 05:17:56;;;;;;;;;5.33;4.00;;;;;7.43;86.78;102061.75;5090026;27;45492;-83
2023/03/28 05:20:21;;;;;;;;;5.67;4.00;;;;;7.42;86.35;102062.78;5076725;27;47672;-79
2023/03/28 05:22:48;;;;;;;;;5.00;3.00;;;;;7.37;86.26;102042.41;5071892;27;45878;-84
2023/03/28 05:25:20;;;;;;;;;4.33;4.33;;;;;7.53;88.78;102067.13;5069582;27;45857;-81
2023/03/28 05:27:45;;;;;;;;;5.67;5.67;;;;;7.62;87.53;102056.28;5072253;27;45837;-79
2023/03/28 05:30:11;;;;;;;;;3.00;3.00;;;;;7.61;87.43;102063.63;5063892;27;47840;-82
2023/03/28 05:32:37;;;;;;;;;5.67;4.00;;;;;7.39;87.96;102018.53;5075522;27;46123;-79
2023/03/28 05:35:04;;;;;;;;;7.33;6.00;;;;;7.55;87.75;102051.44;5092734;27;45433;-79
2023/03/28 05:37:30;;;;;;;;;7.00;7.00;;;;;7.60;87.58;102053.69;5099967;27;45933;-80
2023/03/28 05:39:55;;;;;;;;;7.67;6.67;;;;;7.47;88.71;102032.28;5106648;27;46143;-78
2023/03/28 05:42:21;;;;;;;;;15.00;8.67;;;;;7.56;88.48;102063.22;5088580;27;46527;-80
2023/03/28 05:44:46;;;;;;;;;11.67;10.00;;;;;7.53;87.47;102058.94;5074450;27;45676;-79
2023/03/28 05:47:11;;;;;;;;;12.67;9.00;;;;;7.59;88.01;102061.03;5073786;27;45934;-80
2023/03/28 05:49:37;;;;;;;;;14.33;9.33;;;;;7.61;88.60;102069.09;5092569;27;46917;-79
2023/03/28 05:52:02;;;;;;;;;11.00;11.00;;;;;7.64;88.54;102065.19;5104633;27;45467;-79
2023/03/28 05:54:29;;;;;;;;;13.67;12.67;;;;;7.60;88.50;102051.84;5083667;27;45543;-79
2023/03/28 05:56:55;;;;;;;;;12.00;9.33;;;;;7.54;88.08;102048.88;5071002;27;46969;-79
2023/03/28 05:59:23;;;;;;;;;6.67;6.33;;;;;7.62;89.19;102062.63;5071689;27;47865;-79
2023/03/28 06:01:52;;;;;;;;;13.00;12.00;;;;;7.61;88.75;102063.63;5091718;27;45359;-80
2023/03/28 06:04:21;;;;;;;;;15.67;12.00;;;;;7.65;89.19;102061.41;5098240;27;45417;-83
2023/03/28 06:06:52;;;;;;;;;17.33;9.67;;;;;7.46;89.79;102021.53;5071573;27;46636;-85
2023/03/28 06:09:36;;;;;;;;;12.33;9.00;;;;;7.70;89.14;102050.91;5077901;27;46946;-80
2023/03/28 06:12:07;;;;;;;;;16.67;8.67;;;;;7.90;89.65;102068.81;5073798;27;45857;-80
2023/03/28 06:14:34;;;;;;;;;12.33;9.00;;;;;7.81;88.11;102061.56;5115653;27;45640;-81
2023/03/28 06:17:06;;;;;;;;;13.67;12.67;;;;;8.02;89.20;102074.88;5088494;27;45957;-81
2023/03/28 06:19:38;;;;;;;;;9.67;8.00;;;;;8.07;88.53;102068.94;5095469;27;45474;-80
2023/03/28 06:22:06;;;;;;;;;12.33;9.67;;;;;8.19;87.73;102081.31;5087725;27;45477;-80
2023/03/28 06:24:31;;;;;;;;;12.33;9.33;;;;;8.20;88.29;102071.25;5066548;27;45545;-81
2023/03/28 06:26:57;;;;;;;;;8.33;8.00;;;;;8.21;88.23;102062.88;5082169;27;45786;-81
2023/03/28 06:29:23;;;;;;;;;8.00;7.00;;;;;8.33;87.19;102076.28;5075447;27;45672;-81
2023/03/28 06:32:16;;;;;;;;;11.33;7.00;;;;;8.22;87.47;102023.63;5052761;27;45395;-82
2023/03/28 06:34:42;;;;;;;;;8.33;6.67;;;;;8.52;86.50;102065.16;5078284;27;45592;-79
2023/03/28 06:37:07;;;;;;;;;8.00;5.67;;;;;8.66;87.02;102071.88;5093166;27;46464;-80
2023/03/28 06:39:35;;;;;;;;;10.33;8.67;;;;;8.76;86.65;102077.25;5091116;27;46187;-80
2023/03/28 06:42:20;;;;;;;;;9.33;7.33;;;;;8.73;86.90;102063.91;5058733;27;45569;-80
2023/03/28 06:44:45;;;;;;;;;10.33;8.67;;;;;8.94;86.28;102088.09;5087148;27;45595;-83
2023/03/28 06:47:11;;;;;;;;;13.33;8.67;;;;;8.99;85.98;102086.53;5091412;27;46918;-84
2023/03/28 06:49:38;;;;;;;;;9.33;8.00;;;;;8.89;85.90;102087.72;5100543;27;45718;-80
2023/03/28 06:52:05;;;;;;;;;6.00;6.00;;;;;8.75;86.00;102056.38;5096592;27;45909;-78
2023/03/28 06:54:30;;;;;;;;;6.33;6.33;;;;;8.80;85.41;102078.59;5097069;27;45390;-77
2023/03/28 06:56:58;;;;;;;;;7.00;7.00;;;;;8.79;85.70;102074.19;5100966;27;45416;-79
2023/03/28 06:59:31;;;;;;;;;10.00;7.67;;;;;8.77;85.61;102070.72;5074750;27;47026;-81
2023/03/28 07:01:56;;;;;;;;;8.00;7.00;;;;;8.84;85.75;102074.53;5077938;27;46322;-80
2023/03/28 07:04:22;;;;;;;;;7.33;7.33;;;;;8.84;86.20;102066.31;5097948;27;45485;-78
2023/03/28 07:06:48;;;;;;;;;12.33;10.00;;;;;8.75;85.99;102032.59;5077176;27;45830;-78
2023/03/28 07:09:13;;;;;;;;;8.00;8.00;;;;;8.96;86.02;102054.03;5101511;27;46254;-80
2023/03/28 07:11:39;;;;;;;;;12.33;8.00;;;;;8.99;86.28;102040.03;5089180;27;45306;-78
2023/03/28 07:14:05;;;;;;;;;14.33;9.33;;;;;8.95;85.83;102016.78;5081595;27;45680;-79
2023/03/28 07:16:30;;;;;;;;;9.67;8.00;;;;;9.16;84.99;102040.06;5094340;27;45495;-78
2023/03/28 07:18:56;;;;;;;;;6.67;6.67;;;;;9.13;85.16;102008.44;5076336;27;45885;-79
2023/03/28 07:21:21;;;;;;;;;10.00;10.00;;;;;9.33;85.19;102024.56;5099166;27;45918;-78
2023/03/28 07:23:47;;;;;;;;;10.00;10.00;;;;;9.49;84.72;102034.66;5092170;27;45722;-77
2023/03/28 07:26:14;;;;;;;;;12.00;6.33;;;;;9.50;84.52;102047.31;5076567;27;45819;-77
2023/03/28 07:28:40;;;;;;;;;9.00;8.00;;;;;9.64;83.64;102048.53;5072822;27;46927;-76
2023/03/28 07:31:05;;;;;;;;;7.00;7.00;;;;;9.62;83.20;102045.97;5069373;28;45890;-78
2023/03/28 07:33:32;;;;;;;;;10.00;9.00;;;;;9.79;84.10;102046.84;5079850;27;45416;-77
2023/03/28 07:35:58;;;;;;;;;8.00;7.00;;;;;9.89;83.55;102055.72;5093773;27;45540;-77
2023/03/28 07:38:25;;;;;;;;;6.00;5.67;;;;;10.09;82.79;102055.38;5079032;27;47940;-77
2023/03/28 07:40:50;;;;;;;;;12.33;9.00;;;;;10.32;82.23;102063.72;5078550;27;46125;-79
2023/03/28 07:43:16;;;;;;;;;10.67;9.33;;;;;10.51;81.43;102064.38;5087936;27;45531;-80
2023/03/28 07:45:41;;;;;;;;;7.00;7.00;;;;;10.80;82.65;102060.19;5101833;27;45818;-79
2023/03/28 07:48:07;;;;;;;;;10.33;8.67;;;;;10.87;81.17;102061.19;5085443;27;45984;-81
2023/03/28 07:50:33;;;;;;;;;8.33;8.33;;;;;11.08;79.94;102049.59;5089444;27;45899;-80
2023/03/28 07:52:59;;;;;;;;;10.67;10.67;;;;;11.22;80.98;102042.44;5080405;27;45525;-80
2023/03/28 07:55:27;;;;;;;;;14.67;11.33;;;;;11.41;79.44;102054.88;5093320;27;45701;-80
2023/03/28 07:57:57;;;;;;;;;12.00;9.00;;;;;11.52;79.35;102064.56;5084853;27;45758;-80
2023/03/28 08:00:22;;;;;;;;;11.67;9.00;;;;;11.73;79.01;102064.75;5067682;27;45795;-76
2023/03/28 08:02:49;;;;;;;;;10.33;7.00;;;;;12.03;78.55;102067.59;5080072;27;46118;-77
2023/03/28 08:05:14;;;;;;;;;15.67;13.67;;;;;12.18;79.18;102065.75;5093353;27;45913;-78
2023/03/28 08:07:46;;;;;;;;;11.33;10.00;;;;;12.34;76.79;102058.38;5065003;27;46955;-77
2023/03/28 08:10:13;;;;;;;;;9.00;9.00;;;;;12.48;76.23;102052.00;5087220;27;45442;-78
2023/03/28 08:12:41;;;;;;;;;8.00;8.00;;;;;12.76;74.69;102061.50;5076606;27;45422;-77
2023/03/28 08:15:06;;;;;;;;;7.33;5.00;;;;;12.92;73.65;102063.19;5070171;27;45523;-78
2023/03/28 08:17:35;;;;;;;;;7.00;7.00;;;;;12.94;72.49;102044.59;5086825;27;47778;-78
2023/03/28 08:20:07;;;;;;;;;7.33;7.33;;;;;13.24;72.27;102061.91;5091156;27;46038;-78
2023/03/28 08:22:33;;;;;;;;;12.00;9.33;;;;;13.39;73.03;102048.94;5094129;27;45822;-79
2023/03/28 08:24:58;;;;;;;;;11.67;7.00;;;;;13.58;69.70;102055.72;5069545;27;45807;-78
2023/03/28 08:27:23;;;;;;;;;8.00;8.00;;;;;13.59;69.62;102040.91;5083713;27;45568;-81
2023/03/28 08:29:50;;;;;;;;;8.33;8.00;;;;;13.94;69.66;102048.41;5043576;27;1246783;-80
2023/03/28 08:32:15;;;;;;;;;7.67;7.67;;;;;14.07;68.65;102042.13;5095272;27;45441;-80
2023/03/28 08:34:41;;;;;;;;;8.67;7.00;;;;;14.21;66.40;102048.63;5094648;27;46866;-80
2023/03/28 08:37:07;;;;;;;;;9.67;8.33;;;;;14.25;67.77;102039.75;5098415;27;46193;-82
2023/03/28 08:39:33;;;;;;;;;11.33;8.33;;;;;14.26;65.95;102057.16;5083967;27;45808;-80
2023/03/28 08:42:20;;;;;;;;;9.67;8.67;;;;;14.22;68.18;102059.47;5099309;27;45554;-78
2023/03/28 08:44:48;;;;;;;;;7.67;7.00;;;;;13.97;66.43;102056.28;5079919;27;45911;-76
2023/03/28 08:47:30;;;;;;;;;8.00;7.33;;;;;13.65;65.40;102055.78;5075140;27;45830;-79
2023/03/28 08:50:18;;;;;;;;;7.33;6.67;;;;;13.30;65.16;102030.81;5073360;27;45453;-78
2023/03/28 08:52:45;;;;;;;;;8.67;8.67;;;;;13.26;65.92;102035.00;5072344;27;45414;-79
2023/03/28 08:55:42;;;;;;;;;8.00;7.00;;;;;13.31;66.41;102046.31;5091530;27;45488;-81
2023/03/28 08:58:18;;;;;;;;;9.00;8.00;;;;;13.13;66.60;102024.69;5098335;27;45529;-83
2023/03/28 09:00:45;;;;;;;;;7.00;6.00;;;;;13.29;65.86;102050.28;5079100;27;45498;-81
2023/03/28 09:03:13;;;;;;;;;6.67;4.67;;;;;13.23;64.29;102035.38;5095510;27;45497;-80
2023/03/28 09:05:45;;;;;;;;;6.67;6.67;;;;;13.20;65.30;102022.88;5098328;27;45454;-81
2023/03/28 09:08:35;;;;;;;;;6.33;6.33;;;;;13.18;65.21;102030.47;5070869;27;47517;-81
2023/03/28 09:11:42;;;;;;;;;4.33;3.67;;;;;13.19;63.89;102034.09;5073200;27;45465;-80
2023/03/28 09:14:35;;;;;;;;;7.67;5.67;;;;;13.24;62.04;102032.44;5095476;27;45617;-79
2023/03/28 09:17:40;;;;;;;;;6.00;6.00;;;;;13.25;61.84;102031.41;5078829;27;46146;-78
2023/03/28 09:20:32;;;;;;;;;5.00;5.00;;;;;13.35;61.87;102024.75;5051980;28;46331;-78
2023/03/28 09:23:11;;;;;;;;;6.33;5.33;;;;;13.41;62.80;102007.41;5093502;27;44831;-77
2023/03/28 09:25:49;;;;;;;;;6.33;5.67;;;;;13.70;62.62;102031.25;5094979;27;46045;-78
2023/03/28 09:28:17;;;;;;;;;10.00;6.33;;;;;13.84;62.83;102023.09;5090802;27;46224;-79
2023/03/28 09:30:47;;;;;;;;;7.67;6.67;;;;;13.88;61.49;102027.16;5097498;27;47225;-79
2023/03/28 09:33:39;;;;;;;;;8.33;7.33;;;;;13.71;60.74;102023.81;5094783;27;45548;-79
2023/03/28 09:36:58;;;;;;;;;4.67;3.67;;;;;13.36;60.49;101982.38;5088340;27;45420;-76
2023/03/28 09:43:43;;;;;;;;;6.67;5.67;;;;;13.62;61.29;101998.28;4909598;28;45608;-81
2023/03/28 09:46:53;;;;;;;;;5.33;4.00;;;;;13.67;59.59;101989.44;4907383;28;45446;-80
2023/03/28 09:50:01;;;;;;;;;5.33;5.33;;;;;13.67;59.83;101983.94;4913957;28;45781;-80
2023/03/28 09:56:30;;;;;;;;;3.67;2.67;;;;;14.20;58.69;101981.53;4900432;28;45689;-80
2023/03/28 09:59:01;;;;;;;;;3.00;3.00;;;;;14.39;58.56;101940.47;4897548;29;45784;-80
2023/03/28 10:08:47;;;;;;;;;3.00;2.67;;;;;15.48;57.90;101969.06;5037380;28;45840;-81
2023/03/28 10:14:51;;;;;;;;;4.00;4.00;;;;;15.62;56.33;101920.16;5090578;27;45414;-82
2023/03/28 10:17:36;;;;;;;;;3.00;2.33;;;;;15.96;55.03;101952.28;5077628;27;45603;-82
2023/03/28 10:20:18;;;;;;;;;4.67;3.00;;;;;15.87;54.58;101948.03;5087886;27;46114;-80
2023/03/28 10:22:48;;;;;;;;;4.33;3.67;;;;;15.72;53.46;101948.22;5080501;27;45570;-79
2023/03/28 10:25:36;;;;;;;;;2.67;2.67;;;;;15.17;53.77;101882.09;5078827;27;45440;-82
2023/03/28 10:28:22;;;;;;;;;8.00;4.67;;;;;15.23;53.96;101943.94;5089080;27;46093;-81
2023/03/28 10:31:00;;;;;;;;;8.67;4.33;;;;;15.04;53.46;101932.63;5093925;27;46145;-83
2023/03/28 10:33:47;;;;;;;;;5.00;4.00;;;;;15.10;54.57;101948.38;5094308;27;45492;-80
2023/03/28 10:36:27;;;;;;;;;7.67;5.00;;;;;15.00;53.87;101931.38;5089614;27;45886;-79
2023/03/28 10:38:53;;;;;;;;;4.00;2.00;;;;;15.08;54.05;101935.84;5089809;27;46015;-76
2023/03/28 10:41:22;;;;;;;;;2.67;2.67;;;;;14.78;53.22;101894.78;5090043;27;47723;-77
2023/03/28 10:43:48;;;;;;;;;4.00;2.67;;;;;14.96;53.42;101925.41;5089303;27;45881;-77
2023/03/28 10:46:20;;;;;;;;;2.67;2.67;;;;;14.63;53.29;101925.31;5091218;27;45841;-77
2023/03/28 10:49:12;;;;;;;;;2.00;2.00;;;;;14.48;54.22;101918.00;5089858;27;45657;-77
2023/03/28 10:51:48;;;;;;;;;3.00;3.00;;;;;14.27;54.25;101899.66;5083079;27;46910;-79
2023/03/28 10:54:35;;;;;;;;;2.67;2.67;;;;;14.19;54.74;101899.84;5078323;27;45956;-80
2023/03/28 10:57:26;;;;;;;;;7.33;3.00;;;;;14.03;54.79;101883.63;5074383;27;46082;-78
2023/03/28 11:00:13;;;;;;;;;5.00;2.50;;;;;14.17;55.68;101910.22;5088568;27;45478;-78
2023/03/28 11:02:47;;;;;;;;;3.67;3.00;;;;;14.12;54.97;101910.00;5076165;27;47234;-78
2023/03/28 11:05:16;;;;;;;;;2.67;1.67;;;;;14.06;55.00;101911.66;5082241;27;45990;-80
2023/03/28 11:08:11;;;;;;;;;4.67;3.00;;;;;14.00;55.56;101903.34;5056520;27;45871;-77
2023/03/28 11:10:55;;;;;;;;;4.67;3.33;;;;;14.14;55.90;101891.31;5051949;28;46970;-77
2023/03/28 11:13:29;;;;;;;;;1.00;1.00;;;;;14.33;55.56;101891.63;5080333;27;46452;-77
2023/03/28 11:16:07;;;;;;;;;3.67;3.00;;;;;14.39;56.39;101894.41;5087398;27;45674;-79
2023/03/28 11:18:41;;;;;;;;;1.33;0.33;;;;;14.41;56.10;101894.19;5057666;27;45741;-78
2023/03/28 11:21:49;;;;;;;;;5.33;5.33;;;;;14.44;56.22;101883.59;5073235;27;46767;-79
2023/03/28 11:24:26;;;;;;;;;6.67;4.67;;;;;14.65;56.77;101884.53;5076987;27;46557;-79
2023/03/28 11:27:10;;;;;;;;;5.00;3.00;;;;;14.61;56.16;101895.16;5086415;27;46086;-77
2023/03/28 11:30:10;;;;;;;;;6.33;3.33;;;;;14.50;55.70;101887.44;5077747;27;45993;-78
2023/03/28 11:32:35;;;;;;;;;5.33;3.33;;;;;14.37;56.08;101895.66;5075538;27;45814;-80
2023/03/28 11:35:12;;;;;;;;;3.67;3.67;;;;;14.32;56.67;101878.88;5079933;27;48162;-79
2023/03/28 11:37:55;;;;;;;;;10.33;7.67;;;;;14.38;57.11;101867.84;5088694;27;45475;-78
2023/03/28 11:40:27;;;;;;;;;8.33;6.33;;;;;14.53;56.51;101864.94;5090816;27;45696;-77
2023/03/28 11:43:01;;;;;;;;;8.67;8.67;;;;;14.47;56.65;101843.69;5090560;27;45461;-77
2023/03/28 11:45:30;;;;;;;;;4.67;4.67;;;;;14.58;56.01;101856.91;5089152;27;45967;-79
2023/03/28 11:48:28;;;;;;;;;3.00;2.67;;;;;14.20;55.52;101816.00;5068818;27;45701;-81
2023/03/28 11:51:05;;;;;;;;;4.00;4.00;;;;;14.47;56.55;101844.53;5088625;27;45796;-77
2023/03/28 11:53:33;;;;;;;;;4.33;4.33;;;;;14.58;57.03;101842.22;5091175;27;45729;-76
2023/03/28 11:56:10;;;;;;;;;4.00;3.00;;;;;14.69;56.58;101830.59;5086806;27;45882;-79
2023/03/28 11:58:42;;;;;;;;;4.00;4.00;;;;;14.84;56.59;101816.59;5087402;27;45563;-77
2023/03/28 12:01:24;;;;;;;;;4.67;3.00;;;;;15.02;56.24;101815.13;5082279;27;45890;-77
2023/03/28 12:03:49;;;;;;;;;4.00;4.00;;;;;15.17;56.32;101810.25;5066860;27;46110;-80
2023/03/28 12:06:37;;;;;;;;;7.00;6.67;;;;;15.16;56.22;101814.06;5099080;27;46199;-79
2023/03/28 12:09:19;;;;;;;;;10.00;8.33;;;;;15.23;56.79;101825.13;5067409;28;45576;-77
2023/03/28 12:12:02;;;;;;;;;7.00;4.00;;;;;15.11;56.55;101811.09;5050694;27;45465;-77
2023/03/28 12:14:42;;;;;;;;;4.33;4.00;;;;;14.98;56.18;101789.84;5072342;27;45445;-78
2023/03/28 12:17:17;;;;;;;;;6.67;5.00;;;;;14.98;56.25;101795.34;5071478;27;46601;-78
2023/03/28 12:19:42;;;;;;;;;3.67;3.67;;;;;15.08;55.91;101812.38;5075667;27;45659;-79
2023/03/28 12:22:33;;;;;;;;;5.67;2.67;;;;;15.25;56.56;101810.00;5102932;27;45953;-79
2023/03/28 12:25:05;;;;;;;;;3.00;3.00;;;;;15.39;55.71;101802.56;5070319;27;47101;-80
2023/03/28 12:28:15;;;;;;;;;5.00;5.00;;;;;15.50;56.24;101790.00;5089206;27;46971;-80
2023/03/28 12:30:58;;;;;;;;;3.67;3.67;;;;;15.60;55.50;101793.16;5096503;27;45875;-79
2023/03/28 12:33:43;;;;;;;;;6.00;4.00;;;;;15.39;55.62;101790.63;5081734;27;45449;-79